sensor_id;sensor_type;location;lat;lon;timestamp;pressure;altitude;pressure_sealevel;temperature;humidity
57628;BME280;43451;49.060;10.616;2023-11-19T00:00:16;96724.97;;;5.54;100.00
57628;BME280;43451;49.060;10.616;2023-11-19T00:02:42;96723.50;;;5.56;100.00
57628;BME280;43451;49.060;10.616;2023-11-19T00:05:08;96716.25;;;5.61;100.00
57628;BME280;43451;49.060;10.616;2023-11-19T00:07:37;96714.53;;;5.72;100.00
57628;BME280;43451;49.060;10.616;2023-11-19T00:10:09;96700.94;;;5.65;100.00
57628;BME280;43451;49.060;10.616;2023-11-19T00:12:40;96693.69;;;5.69;100.00
57628;BME280;43451;49.060;10.616;2023-11-19T00:15:06;96677.81;;;5.64;100.00
57628;BME280;43451;49.060;10.616;2023-11-19T00:17:47;96674.34;;;5.63;100.00
57628;BME280;43451;49.060;10.616;2023-11-19T00:20:19;96666.72;;;5.69;100.00
57628;BME280;43451;49.060;10.616;2023-11-19T00:22:47;96676.75;;;5.68;100.00
57628;BME280;43451;49.060;10.616;2023-11-19T00:25:17;96679.66;;;5.59;100.00
57628;BME280;43451;49.060;10.616;2023-11-19T00:27:43;96670.09;;;5.62;100.00
57628;BME280;43451;49.060;10.616;2023-11-19T00:30:11;96659.72;;;5.64;100.00
57628;BME280;43451;49.060;10.616;2023-11-19T00:32:37;96659.03;;;5.71;100.00
57628;BME280;43451;49.060;10.616;2023-11-19T00:35:05;96665.91;;;5.65;100.00
57628;BME280;43451;49.060;10.616;2023-11-19T00:37:31;96656.66;;;5.66;100.00
57628;BME280;43451;49.060;10.616;2023-11-19T00:39:56;96662.13;;;5.69;100.00
57628;BME280;43451;49.060;10.616;2023-11-19T00:42:23;96657.59;;;5.77;100.00
57628;BME280;43451;49.060;10.616;2023-11-19T00:44:50;96641.31;;;5.70;100.00
57628;BME280;43451;49.060;10.616;2023-11-19T00:47:15;96642.88;;;5.71;100.00
57628;BME280;43451;49.060;10.616;2023-11-19T00:49:41;96637.09;;;5.69;100.00
57628;BME280;43451;49.060;10.616;2023-11-19T00:52:06;96633.88;;;5.86;100.00
57628;BME280;43451;49.060;10.616;2023-11-19T00:54:32;96629.34;;;5.90;100.00
57628;BME280;43451;49.060;10.616;2023-11-19T00:56:57;96634.97;;;5.81;100.00
57628;BME280;43451;49.060;10.616;2023-11-19T00:59:23;96643.69;;;5.71;100.00
57628;BME280;43451;49.060;10.616;2023-11-19T01:01:48;96647.19;;;5.75;100.00
57628;BME280;43451;49.060;10.616;2023-11-19T01:04:14;96639.94;;;5.79;100.00
57628;BME280;43451;49.060;10.616;2023-11-19T01:06:40;96639.25;;;5.86;100.00
57628;BME280;43451;49.060;10.616;2023-11-19T01:09:08;96651.63;;;5.87;100.00
57628;BME280;43451;49.060;10.616;2023-11-19T01:11:34;96640.19;;;5.94;100.00
57628;BME280;43451;49.060;10.616;2023-11-19T01:13:59;96635.63;;;5.98;100.00
57628;BME280;43451;49.060;10.616;2023-11-19T01:16:25;96625.25;;;6.00;100.00
57628;BME280;43451;49.060;10.616;2023-11-19T01:18:51;96621.72;;;5.96;100.00
57628;BME280;43451;49.060;10.616;2023-11-19T01:21:17;96626.03;;;6.00;100.00
57628;BME280;43451;49.060;10.616;2023-11-19T01:23:43;96620.22;;;5.98;100.00
57628;BME280;43451;49.060;10.616;2023-11-19T01:26:12;96615.97;;;5.97;100.00
57628;BME280;43451;49.060;10.616;2023-11-19T01:28:39;96609.44;;;5.98;100.00
57628;BME280;43451;49.060;10.616;2023-11-19T01:31:05;96598.97;;;5.93;100.00
57628;BME280;43451;49.060;10.616;2023-11-19T01:33:32;96601.69;;;5.93;100.00
57628;BME280;43451;49.060;10.616;2023-11-19T01:35:57;96594.63;;;5.89;100.00
57628;BME280;43451;49.060;10.616;2023-11-19T01:38:24;96592.13;;;5.99;100.00
57628;BME280;43451;49.060;10.616;2023-11-19T01:40:50;96594.91;;;6.07;100.00
57628;BME280;43451;49.060;10.616;2023-11-19T01:43:32;96588.69;;;6.02;100.00
57628;BME280;43451;49.060;10.616;2023-11-19T01:45:58;96594.75;;;5.96;100.00
57628;BME280;43451;49.060;10.616;2023-11-19T01:48:24;96593.69;;;6.00;100.00
57628;BME280;43451;49.060;10.616;2023-11-19T01:50:50;96584.03;;;5.99;100.00
57628;BME280;43451;49.060;10.616;2023-11-19T01:53:17;96587.22;;;6.09;100.00
57628;BME280;43451;49.060;10.616;2023-11-19T01:55:43;96579.56;;;6.11;100.00
57628;BME280;43451;49.060;10.616;2023-11-19T01:58:09;96587.34;;;6.16;100.00
57628;BME280;43451;49.060;10.616;2023-11-19T02:00:34;96588.13;;;6.16;100.00
57628;BME280;43451;49.060;10.616;2023-11-19T02:03:00;96587.78;;;6.21;100.00
57628;BME280;43451;49.060;10.616;2023-11-19T02:05:26;96585.81;;;6.18;100.00
57628;BME280;43451;49.060;10.616;2023-11-19T02:07:52;96589.69;;;6.21;100.00
57628;BME280;43451;49.060;10.616;2023-11-19T02:10:17;96581.59;;;6.21;100.00
57628;BME280;43451;49.060;10.616;2023-11-19T02:12:45;96585.97;;;6.29;100.00
57628;BME280;43451;49.060;10.616;2023-11-19T02:15:11;96583.94;;;6.22;100.00
57628;BME280;43451;49.060;10.616;2023-11-19T02:17:36;96574.72;;;6.23;100.00
57628;BME280;43451;49.060;10.616;2023-11-19T02:20:05;96576.72;;;6.30;100.00
57628;BME280;43451;49.060;10.616;2023-11-19T02:22:38;96569.41;;;6.31;100.00
57628;BME280;43451;49.060;10.616;2023-11-19T02:25:07;96569.97;;;6.47;100.00
57628;BME280;43451;49.060;10.616;2023-11-19T02:30:11;96569.97;;;6.47;100.00
57628;BME280;43451;49.060;10.616;2023-11-19T02:32:37;96566.00;;;6.37;100.00
57628;BME280;43451;49.060;10.616;2023-11-19T02:35:06;96571.00;;;6.35;100.00
57628;BME280;43451;49.060;10.616;2023-11-19T02:37:34;96576.69;;;6.26;100.00
57628;BME280;43451;49.060;10.616;2023-11-19T02:39:59;96566.69;;;6.31;100.00
57628;BME280;43451;49.060;10.616;2023-11-19T02:42:34;96553.72;;;6.40;100.00
57628;BME280;43451;49.060;10.616;2023-11-19T02:45:01;96556.06;;;6.41;100.00
57628;BME280;43451;49.060;10.616;2023-11-19T02:47:27;96557.97;;;6.41;100.00
57628;BME280;43451;49.060;10.616;2023-11-19T02:49:55;96550.66;;;6.41;100.00
57628;BME280;43451;49.060;10.616;2023-11-19T02:52:21;96556.63;;;6.58;100.00
57628;BME280;43451;49.060;10.616;2023-11-19T02:54:46;96546.97;;;6.57;100.00
57628;BME280;43451;49.060;10.616;2023-11-19T02:57:12;96543.47;;;6.56;100.00
57628;BME280;43451;49.060;10.616;2023-11-19T02:59:39;96544.66;;;6.59;100.00
57628;BME280;43451;49.060;10.616;2023-11-19T03:02:07;96550.47;;;6.61;100.00
57628;BME280;43451;49.060;10.616;2023-11-19T03:04:37;96555.50;;;6.62;100.00
57628;BME280;43451;49.060;10.616;2023-11-19T03:07:05;96563.16;;;6.57;100.00
57628;BME280;43451;49.060;10.616;2023-11-19T03:09:32;96544.63;;;6.55;100.00
57628;BME280;43451;49.060;10.616;2023-11-19T03:11:59;96557.19;;;6.40;100.00
57628;BME280;43451;49.060;10.616;2023-11-19T03:14:25;96566.38;;;6.36;100.00
57628;BME280;43451;49.060;10.616;2023-11-19T03:16:50;96560.22;;;6.35;100.00
57628;BME280;43451;49.060;10.616;2023-11-19T03:19:16;96559.13;;;6.43;100.00
57628;BME280;43451;49.060;10.616;2023-11-19T03:21:41;96557.56;;;6.39;100.00
57628;BME280;43451;49.060;10.616;2023-11-19T03:24:07;96555.72;;;6.46;100.00
57628;BME280;43451;49.060;10.616;2023-11-19T03:26:33;96553.03;;;6.50;100.00
57628;BME280;43451;49.060;10.616;2023-11-19T03:28:59;96554.00;;;6.65;100.00
57628;BME280;43451;49.060;10.616;2023-11-19T03:31:24;96547.13;;;6.71;100.00
57628;BME280;43451;49.060;10.616;2023-11-19T03:33:51;96538.59;;;6.69;100.00
57628;BME280;43451;49.060;10.616;2023-11-19T03:36:16;96547.41;;;6.62;100.00
57628;BME280;43451;49.060;10.616;2023-11-19T03:38:42;96561.56;;;6.52;100.00
57628;BME280;43451;49.060;10.616;2023-11-19T03:41:12;96561.16;;;6.50;100.00
57628;BME280;43451;49.060;10.616;2023-11-19T03:43:38;96536.63;;;6.66;100.00
57628;BME280;43451;49.060;10.616;2023-11-19T03:46:05;96551.72;;;6.67;100.00
57628;BME280;43451;49.060;10.616;2023-11-19T03:48:31;96548.13;;;6.59;100.00
57628;BME280;43451;49.060;10.616;2023-11-19T03:50:56;96536.19;;;6.57;100.00
57628;BME280;43451;49.060;10.616;2023-11-19T03:53:22;96536.22;;;6.60;100.00
57628;BME280;43451;49.060;10.616;2023-11-19T03:55:49;96518.47;;;6.63;100.00
57628;BME280;43451;49.060;10.616;2023-11-19T03:58:15;96510.22;;;6.82;100.00
57628;BME280;43451;49.060;10.616;2023-11-19T04:00:40;96514.88;;;6.85;100.00
57628;BME280;43451;49.060;10.616;2023-11-19T04:03:06;96497.50;;;6.86;100.00
57628;BME280;43451;49.060;10.616;2023-11-19T04:05:31;96488.38;;;6.98;100.00
57628;BME280;43451;49.060;10.616;2023-11-19T04:07:57;96487.91;;;6.92;100.00
57628;BME280;43451;49.060;10.616;2023-11-19T04:10:22;96483.63;;;6.88;100.00
57628;BME280;43451;49.060;10.616;2023-11-19T04:12:48;96490.19;;;6.87;100.00
57628;BME280;43451;49.060;10.616;2023-11-19T04:15:14;96495.63;;;6.94;100.00
57628;BME280;43451;49.060;10.616;2023-11-19T04:17:39;96493.19;;;6.78;100.00
57628;BME280;43451;49.060;10.616;2023-11-19T04:20:05;96498.19;;;6.76;100.00
57628;BME280;43451;49.060;10.616;2023-11-19T04:22:31;96496.75;;;6.86;100.00
57628;BME280;43451;49.060;10.616;2023-11-19T04:24:57;96503.34;;;6.92;100.00
57628;BME280;43451;49.060;10.616;2023-11-19T04:27:22;96500.28;;;6.93;100.00
57628;BME280;43451;49.060;10.616;2023-11-19T04:29:49;96496.88;;;7.04;100.00
57628;BME280;43451;49.060;10.616;2023-11-19T04:32:15;96486.91;;;7.08;100.00
57628;BME280;43451;49.060;10.616;2023-11-19T04:34:41;96488.84;;;7.11;100.00
57628;BME280;43451;49.060;10.616;2023-11-19T04:37:06;96495.03;;;7.15;100.00
57628;BME280;43451;49.060;10.616;2023-11-19T04:39:32;96482.78;;;7.25;100.00
57628;BME280;43451;49.060;10.616;2023-11-19T04:41:57;96485.88;;;7.27;100.00
57628;BME280;43451;49.060;10.616;2023-11-19T04:44:23;96487.00;;;7.22;100.00
57628;BME280;43451;49.060;10.616;2023-11-19T04:46:48;96487.41;;;7.28;100.00
57628;BME280;43451;49.060;10.616;2023-11-19T04:49:14;96495.63;;;7.42;100.00
57628;BME280;43451;49.060;10.616;2023-11-19T04:51:41;96489.53;;;7.52;100.00
57628;BME280;43451;49.060;10.616;2023-11-19T04:54:10;96503.06;;;7.56;100.00
57628;BME280;43451;49.060;10.616;2023-11-19T04:56:36;96506.09;;;7.51;100.00
57628;BME280;43451;49.060;10.616;2023-11-19T04:59:03;96504.97;;;7.52;100.00
57628;BME280;43451;49.060;10.616;2023-11-19T05:01:29;96502.69;;;7.61;100.00
57628;BME280;43451;49.060;10.616;2023-11-19T05:03:56;96497.34;;;7.68;100.00
57628;BME280;43451;49.060;10.616;2023-11-19T05:06:30;96492.38;;;7.77;100.00
57628;BME280;43451;49.060;10.616;2023-11-19T05:09:00;96498.19;;;7.86;100.00
57628;BME280;43451;49.060;10.616;2023-11-19T05:11:33;96487.78;;;7.88;100.00
57628;BME280;43451;49.060;10.616;2023-11-19T05:13:59;96490.94;;;8.05;100.00
57628;BME280;43451;49.060;10.616;2023-11-19T05:16:25;96487.50;;;8.11;100.00
57628;BME280;43451;49.060;10.616;2023-11-19T05:18:51;96494.47;;;8.16;100.00
57628;BME280;43451;49.060;10.616;2023-11-19T05:21:17;96498.38;;;8.19;100.00
57628;BME280;43451;49.060;10.616;2023-11-19T05:23:43;96493.31;;;8.17;100.00
57628;BME280;43451;49.060;10.616;2023-11-19T05:26:38;96486.38;;;8.27;100.00
57628;BME280;43451;49.060;10.616;2023-11-19T05:29:04;96480.56;;;8.21;100.00
57628;BME280;43451;49.060;10.616;2023-11-19T05:31:30;96472.06;;;8.19;100.00
57628;BME280;43451;49.060;10.616;2023-11-19T05:33:56;96478.66;;;8.25;100.00
57628;BME280;43451;49.060;10.616;2023-11-19T05:36:21;96475.97;;;8.32;100.00
57628;BME280;43451;49.060;10.616;2023-11-19T05:38:46;96470.16;;;8.30;100.00
57628;BME280;43451;49.060;10.616;2023-11-19T05:41:12;96473.22;;;8.18;100.00
57628;BME280;43451;49.060;10.616;2023-11-19T05:43:37;96463.91;;;8.08;100.00
57628;BME280;43451;49.060;10.616;2023-11-19T05:46:06;96461.22;;;8.12;100.00
57628;BME280;43451;49.060;10.616;2023-11-19T05:48:32;96470.47;;;8.07;100.00
57628;BME280;43451;49.060;10.616;2023-11-19T05:50:57;96481.25;;;7.97;100.00
57628;BME280;43451;49.060;10.616;2023-11-19T05:53:23;96480.50;;;8.00;100.00
57628;BME280;43451;49.060;10.616;2023-11-19T05:55:48;96475.47;;;8.05;100.00
57628;BME280;43451;49.060;10.616;2023-11-19T05:58:24;96491.78;;;8.16;100.00
57628;BME280;43451;49.060;10.616;2023-11-19T06:00:51;96486.75;;;8.18;100.00
57628;BME280;43451;49.060;10.616;2023-11-19T06:03:16;96487.16;;;8.27;100.00
57628;BME280;43451;49.060;10.616;2023-11-19T06:05:44;96491.81;;;8.27;100.00
57628;BME280;43451;49.060;10.616;2023-11-19T06:08:10;96486.78;;;8.29;100.00
57628;BME280;43451;49.060;10.616;2023-11-19T06:10:41;96484.56;;;8.49;100.00
57628;BME280;43451;49.060;10.616;2023-11-19T06:13:06;96488.06;;;8.56;100.00
57628;BME280;43451;49.060;10.616;2023-11-19T06:15:33;96484.59;;;8.67;100.00
57628;BME280;43451;49.060;10.616;2023-11-19T06:17:58;96497.38;;;8.66;100.00
57628;BME280;43451;49.060;10.616;2023-11-19T06:20:31;96490.03;;;8.74;100.00
57628;BME280;43451;49.060;10.616;2023-11-19T06:22:57;96490.41;;;8.79;100.00
57628;BME280;43451;49.060;10.616;2023-11-19T06:25:23;96497.00;;;8.93;100.00
57628;BME280;43451;49.060;10.616;2023-11-19T06:27:51;96506.69;;;8.94;100.00
57628;BME280;43451;49.060;10.616;2023-11-19T06:30:18;96500.50;;;9.00;100.00
57628;BME280;43451;49.060;10.616;2023-11-19T06:32:43;96487.34;;;9.06;100.00
57628;BME280;43451;49.060;10.616;2023-11-19T06:35:09;96498.19;;;8.99;100.00
57628;BME280;43451;49.060;10.616;2023-11-19T06:37:35;96491.22;;;9.01;100.00
57628;BME280;43451;49.060;10.616;2023-11-19T06:40:01;96486.56;;;9.02;100.00
57628;BME280;43451;49.060;10.616;2023-11-19T06:42:27;96486.56;;;9.16;100.00
57628;BME280;43451;49.060;10.616;2023-11-19T06:44:53;96486.56;;;9.23;100.00
57628;BME280;43451;49.060;10.616;2023-11-19T06:47:18;96491.22;;;9.30;100.00
57628;BME280;43451;49.060;10.616;2023-11-19T06:49:44;96489.66;;;9.18;100.00
57628;BME280;43451;49.060;10.616;2023-11-19T06:52:10;96488.88;;;9.32;100.00
57628;BME280;43451;49.060;10.616;2023-11-19T06:54:36;96488.88;;;9.25;100.00
57628;BME280;43451;49.060;10.616;2023-11-19T06:57:03;96495.06;;;9.25;100.00
57628;BME280;43451;49.060;10.616;2023-11-19T06:59:30;96502.44;;;9.21;100.00
57628;BME280;43451;49.060;10.616;2023-11-19T07:01:56;96503.19;;;9.29;100.00
57628;BME280;43451;49.060;10.616;2023-11-19T07:04:21;96504.38;;;9.39;100.00
57628;BME280;43451;49.060;10.616;2023-11-19T07:06:47;96498.94;;;9.46;100.00
57628;BME280;43451;49.060;10.616;2023-11-19T07:09:13;96507.47;;;9.44;100.00
57628;BME280;43451;49.060;10.616;2023-11-19T07:11:40;96512.13;;;9.37;100.00
57628;BME280;43451;49.060;10.616;2023-11-19T07:14:07;96511.34;;;9.33;100.00
57628;BME280;43451;49.060;10.616;2023-11-19T07:16:33;96512.13;;;9.37;100.00
57628;BME280;43451;49.060;10.616;2023-11-19T07:19:06;96516.78;;;9.40;100.00
57628;BME280;43451;49.060;10.616;2023-11-19T07:21:32;96518.28;;;9.48;100.00
57628;BME280;43451;49.060;10.616;2023-11-19T07:23:59;96520.28;;;9.29;100.00
57628;BME280;43451;49.060;10.616;2023-11-19T07:26:25;96525.69;;;9.40;100.00
57628;BME280;43451;49.060;10.616;2023-11-19T07:28:51;96532.63;;;9.41;100.00
57628;BME280;43451;49.060;10.616;2023-11-19T07:31:17;96530.72;;;9.49;100.00
57628;BME280;43451;49.060;10.616;2023-11-19T07:33:46;96533.03;;;9.61;100.00
57628;BME280;43451;49.060;10.616;2023-11-19T07:36:12;96543.88;;;9.65;100.00
57628;BME280;43451;49.060;10.616;2023-11-19T07:38:38;96538.81;;;9.74;100.00
57628;BME280;43451;49.060;10.616;2023-11-19T07:41:05;96543.09;;;9.61;100.00
57628;BME280;43451;49.060;10.616;2023-11-19T07:43:31;96543.47;;;9.59;100.00
57628;BME280;43451;49.060;10.616;2023-11-19T07:45:56;96551.59;;;9.66;100.00
57628;BME280;43451;49.060;10.616;2023-11-19T07:48:24;96544.25;;;9.67;100.00
57628;BME280;43451;49.060;10.616;2023-11-19T07:50:50;96546.97;;;9.63;100.00
57628;BME280;43451;49.060;10.616;2023-11-19T07:53:16;96536.09;;;9.70;100.00
57628;BME280;43451;49.060;10.616;2023-11-19T07:55:41;96534.56;;;9.62;100.00
57628;BME280;43451;49.060;10.616;2023-11-19T07:58:07;96542.31;;;9.74;100.00
57628;BME280;43451;49.060;10.616;2023-11-19T08:00:32;96539.97;;;9.84;100.00
57628;BME280;43451;49.060;10.616;2023-11-19T08:02:58;96529.50;;;9.93;100.00
57628;BME280;43451;49.060;10.616;2023-11-19T08:05:23;96535.28;;;10.06;100.00
57628;BME280;43451;49.060;10.616;2023-11-19T08:07:50;96538.75;;;10.03;100.00
57628;BME280;43451;49.060;10.616;2023-11-19T08:10:19;96536.03;;;10.06;100.00
57628;BME280;43451;49.060;10.616;2023-11-19T08:12:44;96536.03;;;10.06;100.00
57628;BME280;43451;49.060;10.616;2023-11-19T08:15:10;96527.13;;;10.09;100.00
57628;BME280;43451;49.060;10.616;2023-11-19T08:17:36;96534.47;;;10.12;100.00
57628;BME280;43451;49.060;10.616;2023-11-19T08:20:02;96539.09;;;10.22;100.00
57628;BME280;43451;49.060;10.616;2023-11-19T08:22:30;96525.13;;;10.17;100.00
57628;BME280;43451;49.060;10.616;2023-11-19T08:24:55;96530.56;;;10.28;100.00
57628;BME280;43451;49.060;10.616;2023-11-19T08:27:22;96527.03;;;10.23;100.00
57628;BME280;43451;49.060;10.616;2023-11-19T08:29:54;96526.66;;;10.36;100.00
57628;BME280;43451;49.060;10.616;2023-11-19T08:32:26;96530.53;;;10.35;100.00
57628;BME280;43451;49.060;10.616;2023-11-19T08:34:52;96535.59;;;10.33;100.00
57628;BME280;43451;49.060;10.616;2023-11-19T08:37:18;96538.66;;;10.38;100.00
57628;BME280;43451;49.060;10.616;2023-11-19T08:39:46;96546.03;;;10.38;100.00
57628;BME280;43451;49.060;10.616;2023-11-19T08:42:12;96538.28;;;10.43;100.00
57628;BME280;43451;49.060;10.616;2023-11-19T08:44:38;96535.94;;;10.42;100.00
57628;BME280;43451;49.060;10.616;2023-11-19T08:47:04;96533.59;;;10.48;100.00
57628;BME280;43451;49.060;10.616;2023-11-19T08:49:29;96532.81;;;10.47;100.00
57628;BME280;43451;49.060;10.616;2023-11-19T08:51:55;96529.69;;;10.52;100.00
57628;BME280;43451;49.060;10.616;2023-11-19T08:54:21;96526.16;;;10.59;100.00
57628;BME280;43451;49.060;10.616;2023-11-19T08:56:48;96524.16;;;10.70;100.00
57628;BME280;43451;49.060;10.616;2023-11-19T08:59:13;96511.72;;;10.73;100.00
57628;BME280;43451;49.060;10.616;2023-11-19T09:01:40;96516.38;;;10.76;100.00
57628;BME280;43451;49.060;10.616;2023-11-19T09:04:06;96521.06;;;10.68;100.00
57628;BME280;43451;49.060;10.616;2023-11-19T09:06:32;96527.31;;;10.61;100.00
57628;BME280;43451;49.060;10.616;2023-11-19T09:08:57;96533.47;;;10.65;100.00
57628;BME280;43451;49.060;10.616;2023-11-19T09:11:27;96537.41;;;10.61;100.00
57628;BME280;43451;49.060;10.616;2023-11-19T09:13:53;96540.03;;;10.79;100.00
57628;BME280;43451;49.060;10.616;2023-11-19T09:16:18;96527.97;;;10.80;100.00
57628;BME280;43451;49.060;10.616;2023-11-19T09:18:44;96521.00;;;10.82;100.00
57628;BME280;43451;49.060;10.616;2023-11-19T09:21:13;96526.00;;;10.87;100.00
57628;BME280;43451;49.060;10.616;2023-11-19T09:23:39;96533.75;;;10.89;100.00
57628;BME280;43451;49.060;10.616;2023-11-19T09:26:05;96534.16;;;10.91;100.00
57628;BME280;43451;49.060;10.616;2023-11-19T09:28:32;96534.16;;;10.91;100.00
57628;BME280;43451;49.060;10.616;2023-11-19T09:30:57;96542.28;;;10.87;100.00
57628;BME280;43451;49.060;10.616;2023-11-19T09:33:24;96541.84;;;10.96;100.00
57628;BME280;43451;49.060;10.616;2023-11-19T09:35:50;96548.09;;;10.93;100.00
57628;BME280;43451;49.060;10.616;2023-11-19T09:38:16;96557.31;;;11.06;100.00
57628;BME280;43451;49.060;10.616;2023-11-19T09:40:42;96546.41;;;11.10;100.00
57628;BME280;43451;49.060;10.616;2023-11-19T09:43:08;96536.31;;;11.14;100.00
57628;BME280;43451;49.060;10.616;2023-11-19T09:46:02;96534.72;;;11.20;100.00
57628;BME280;43451;49.060;10.616;2023-11-19T09:48:33;96536.97;;;11.29;100.00
57628;BME280;43451;49.060;10.616;2023-11-19T09:50:59;96538.94;;;11.25;100.00
57628;BME280;43451;49.060;10.616;2023-11-19T09:53:25;96534.25;;;11.29;100.00
57628;BME280;43451;49.060;10.616;2023-11-19T09:55:52;96538.56;;;11.26;100.00
57628;BME280;43451;49.060;10.616;2023-11-19T09:58:18;96535.47;;;11.21;100.00
57628;BME280;43451;49.060;10.616;2023-11-19T10:00:44;96530.94;;;11.07;100.00
57628;BME280;43451;49.060;10.616;2023-11-19T10:03:11;96532.44;;;11.11;100.00
57628;BME280;43451;49.060;10.616;2023-11-19T10:05:37;96534.81;;;11.06;100.00
57628;BME280;43451;49.060;10.616;2023-11-19T10:08:04;96526.22;;;11.14;100.00
57628;BME280;43451;49.060;10.616;2023-11-19T10:10:30;96514.16;;;11.15;100.00
57628;BME280;43451;49.060;10.616;2023-11-19T10:12:56;96507.50;;;11.24;100.00
57628;BME280;43451;49.060;10.616;2023-11-19T10:15:25;96519.94;;;11.21;100.00
57628;BME280;43451;49.060;10.616;2023-11-19T10:17:54;96496.19;;;11.25;100.00
57628;BME280;43451;49.060;10.616;2023-11-19T10:20:20;96515.63;;;11.27;100.00
57628;BME280;43451;49.060;10.616;2023-11-19T10:22:46;96519.03;;;11.38;100.00
57628;BME280;43451;49.060;10.616;2023-11-19T10:25:25;96515.97;;;11.33;100.00
57628;BME280;43451;49.060;10.616;2023-11-19T10:27:55;96534.53;;;11.45;100.00
57628;BME280;43451;49.060;10.616;2023-11-19T10:30:22;96525.75;;;11.68;100.00
57628;BME280;43451;49.060;10.616;2023-11-19T10:33:08;96534.28;;;11.70;100.00
57628;BME280;43451;49.060;10.616;2023-11-19T10:35:35;96516.25;;;11.46;100.00
57628;BME280;43451;49.060;10.616;2023-11-19T10:38:14;96529.81;;;11.49;100.00
57628;BME280;43451;49.060;10.616;2023-11-19T10:40:40;96529.56;;;11.78;100.00
57628;BME280;43451;49.060;10.616;2023-11-19T10:43:06;96509.41;;;11.72;100.00
57628;BME280;43451;49.060;10.616;2023-11-19T10:45:36;96514.03;;;11.75;100.00
57628;BME280;43451;49.060;10.616;2023-11-19T10:48:03;96508.31;;;11.62;100.00
57628;BME280;43451;49.060;10.616;2023-11-19T10:50:37;96493.72;;;11.45;100.00
57628;BME280;43451;49.060;10.616;2023-11-19T10:53:04;96494.53;;;11.42;100.00
57628;BME280;43451;49.060;10.616;2023-11-19T10:55:34;96505.44;;;11.35;100.00
57628;BME280;43451;49.060;10.616;2023-11-19T10:58:09;96498.28;;;11.55;100.00
57628;BME280;43451;49.060;10.616;2023-11-19T11:00:45;96480.97;;;11.38;100.00
57628;BME280;43451;49.060;10.616;2023-11-19T11:03:18;96494.63;;;11.28;100.00
57628;BME280;43451;49.060;10.616;2023-11-19T11:05:46;96485.22;;;11.39;100.00
57628;BME280;43451;49.060;10.616;2023-11-19T11:08:13;96482.16;;;11.34;100.00
57628;BME280;43451;49.060;10.616;2023-11-19T11:10:54;96490.53;;;11.05;100.00
57628;BME280;43451;49.060;10.616;2023-11-19T11:13:22;96493.47;;;11.25;100.00
57628;BME280;43451;49.060;10.616;2023-11-19T11:15:49;96486.41;;;11.35;100.00
57628;BME280;43451;49.060;10.616;2023-11-19T11:18:15;96476.53;;;11.55;100.00
57628;BME280;43451;49.060;10.616;2023-11-19T11:20:40;96492.38;;;11.60;100.00
57628;BME280;43451;49.060;10.616;2023-11-19T11:28:58;96479.81;;;12.15;100.00
57628;BME280;43451;49.060;10.616;2023-11-19T11:31:36;96454.06;;;12.20;100.00
57628;BME280;43451;49.060;10.616;2023-11-19T11:39:30;96449.69;;;12.57;100.00
57628;BME280;43451;49.060;10.616;2023-11-19T11:50:20;96440.53;;;12.13;100.00
57628;BME280;43451;49.060;10.616;2023-11-19T11:58:08;96422.50;;;12.22;100.00
57628;BME280;43451;49.060;10.616;2023-11-19T12:00:39;96466.63;;;12.10;100.00
57628;BME280;43451;49.060;10.616;2023-11-19T12:03:07;96446.44;;;12.38;100.00
57628;BME280;43451;49.060;10.616;2023-11-19T12:05:33;96440.16;;;12.41;100.00
57628;BME280;43451;49.060;10.616;2023-11-19T12:08:04;96446.59;;;12.24;100.00
57628;BME280;43451;49.060;10.616;2023-11-19T12:10:37;96417.94;;;12.16;100.00
57628;BME280;43451;49.060;10.616;2023-11-19T12:13:09;96437.72;;;12.20;100.00
57628;BME280;43451;49.060;10.616;2023-11-19T12:18:31;96437.06;;;12.39;100.00
57628;BME280;43451;49.060;10.616;2023-11-19T12:20:58;96428.72;;;12.53;100.00
57628;BME280;43451;49.060;10.616;2023-11-19T12:23:31;96422.06;;;12.54;100.00
57628;BME280;43451;49.060;10.616;2023-11-19T12:25:57;96413.25;;;12.47;100.00
57628;BME280;43451;49.060;10.616;2023-11-19T12:28:23;96416.78;;;12.44;100.00
57628;BME280;43451;49.060;10.616;2023-11-19T12:30:52;96413.78;;;12.35;100.00
57628;BME280;43451;49.060;10.616;2023-11-19T12:33:18;96412.09;;;12.44;100.00
57628;BME280;43451;49.060;10.616;2023-11-19T12:35:46;96403.75;;;12.28;100.00
57628;BME280;43451;49.060;10.616;2023-11-19T12:38:25;96402.25;;;12.23;100.00
57628;BME280;43451;49.060;10.616;2023-11-19T12:41:11;96397.56;;;12.24;100.00
57628;BME280;43451;49.060;10.616;2023-11-19T12:43:38;96395.28;;;12.22;100.00
57628;BME280;43451;49.060;10.616;2023-11-19T12:46:19;96386.50;;;12.07;100.00
57628;BME280;43451;49.060;10.616;2023-11-19T12:48:46;96392.19;;;12.20;100.00
57628;BME280;43451;49.060;10.616;2023-11-19T12:51:12;96382.63;;;12.36;100.00
57628;BME280;43451;49.060;10.616;2023-11-19T12:53:51;96371.69;;;12.12;100.00
57628;BME280;43451;49.060;10.616;2023-11-19T12:56:22;96374.50;;;12.32;100.00
57628;BME280;43451;49.060;10.616;2023-11-19T12:58:48;96377.81;;;12.47;100.00
57628;BME280;43451;49.060;10.616;2023-11-19T13:01:18;96380.13;;;12.48;100.00
57628;BME280;43451;49.060;10.616;2023-11-19T13:03:44;96362.69;;;12.42;100.00
57628;BME280;43451;49.060;10.616;2023-11-19T13:06:12;96371.00;;;12.59;100.00
57628;BME280;43451;49.060;10.616;2023-11-19T13:11:07;96368.16;;;13.13;100.00
57628;BME280;43451;49.060;10.616;2023-11-19T13:14:10;96361.53;;;13.37;100.00
57628;BME280;43451;49.060;10.616;2023-11-19T13:16:37;96342.09;;;13.12;100.00
57628;BME280;43451;49.060;10.616;2023-11-19T13:19:03;96359.19;;;12.92;100.00